Aircraft
UPR1019 PT-QAE TBM 850
CYWG
Winnipeg / James Armstrong Richardson International Airport
CYQT
Thunder Bay Airport
Pilot:: Rafael
Aircraft:: Black Square TBM 850 Orange
Alternate: CYHD
Network: ivao
FLIGHT DETAILS
Distance: 324nm Duration 01h 16m
Cruise Speed: Flight Level: 19000
Validation: Validated Type Charter
Flight Fuel
ZFW: 2473
Block Fuel/Initial FOB: 619
Flight Fuel: 252
Cargo
Passengers: 4
Cargo: 68
ROUTE
ROUTE: RORMA AXOMA SIDPO DEGVA TIGAG TIGAG3
REMARKS:
DATE
Date: 26-08-30
Departure Time: 2006
Cargo: 68
FLIGHT DETAILS
Crashed: No
Validator Comments: Validado por Claudenir
Flight Rating: 97
LANDING ANALYSIS
Landing wind: 99º/9 kt
Landing heading: 81º
Landing VS:: -81 ft/min
Landing IAS:: 78 kt
Landing Force G: 1 G
Landing Bank: -1
Landing Pitch: -2
Landing Flaps: 100
Navigation Lights: OFF
Landing Lights: ON
Beacon Lights: OFF
Strobe Lights: ON
viserfly

ALTITUDE CHART

viserfly

MAIN EVENTS

DATE EVENT IAS ALTITUDE
2026-08-30 19:53:01 FLYacars version 1.3.6 14 781
2026-08-30 19:53:01 Starting Engine 1 13 781
2026-08-30 19:54:43 Aircraft boarding in progress 11 781
2026-08-30 19:54:43 Navigation Lights ON 11 781
2026-08-30 19:55:14 Engine 1 shutdown 11 781
2026-08-30 19:55:14 Starting Engine 1 11 781
2026-08-30 19:55:14 Engine 1 shutdown 10 781
2026-08-30 19:55:14 Starting Engine 1 10 781
2026-08-30 19:56:34 FLAPS 50% 11 781
2026-08-30 19:57:45 Taxi Lights ON 10 781
2026-08-30 20:02:19 Aircraft taxiing to runway 8 781
2026-08-30 20:02:47 Taxi speed above 25kt 7 781
2026-08-30 20:05:33 Strobe Lights ON 0 783
2026-08-30 20:05:34 Landing Lights ON 0 783
2026-08-30 20:06:46 Detected Take-off roll, HDG 129, IAS 100kt, GS 93kt, G-force 1.1g, Pitch -4.1deg, Bank 0.4deg, Wind 130/14kt, Temp 27°C 100 784
2026-08-30 20:06:46 Airborne 100 784
2026-08-30 20:06:46 Beacon lights OFF and engines ON 100 784
2026-08-30 20:06:48 Gear UP, IAS 103kt, GS 97kt, ALT 13ft AGL 103 793
2026-08-30 20:07:37 FLAPS 0% 132kt, ALT 1908ft 132 1908
2026-08-30 20:12:37 Landing lights ON above 10000fts 137 11001
2026-08-30 20:16:33 Landing Lights OFF 136 16826
2026-08-30 20:16:33 Taxi Lights OFF 136 16826
2026-08-30 20:18:34 Aircraft on Top Of Climb at 19388ft, IAS 139kt, GS 206kt, HDG 89deg, TAT -11deg, WIND 219/19kt 139 19388
2026-08-30 20:57:02 Aircraft on Top Of Descent at 18498ft, IAS 226kt, GS 326kt, HDG 116deg, TAT -9deg, WIND 271/19kt 226 18498
2026-08-30 21:07:44 Landing lights OFF below 10000fts 220 8999
2026-08-30 21:11:16 Landing Lights ON 220 7239
2026-08-30 21:11:17 Taxi Lights ON 220 7231
2026-08-30 21:20:58 Gear DOWN, IAS 158kt, GS 158kt, ALT 1300ft AGL 158 1924
2026-08-30 21:20:58 FLAPS 50% 157kt, ALT 1918ft 157 1918
2026-08-30 21:21:22 FLAPS 100% 117kt, ALT 1622ft 117 1622
2026-08-30 21:23:28 Landed at destination with a landing rate of -81fpm, G-force 1.0g, Pitch -2.2deg, Bank -0.8deg, HDG 81deg, IAS 78kt, GS 74kt, Wind 099/09kt, Temp 20°C 78 646
2026-08-30 21:23:46 Aircraft taxiing to apron 31 646
2026-08-30 21:23:49 FLAPS 50% 26 646
2026-08-30 21:23:49 FLAPS 0% 25 646
2026-08-30 21:24:12 Strobe Lights OFF 29 650
2026-08-30 21:24:13 Landing Lights OFF 27 650
2026-08-30 21:25:55 Engine 1 shutdown 2 646
2026-08-30 21:25:55 Starting Engine 1 2 646
2026-08-30 21:25:56 Taxi Lights OFF 2 646
2026-08-30 21:26:01 Navigation Lights OFF 2 646
2026-08-30 21:26:23 Aircraft at gate/stand, ground services are moving into position, disembarkation has begun. Remaining FOB 367kg FLYacars v1.3.6 3 646
viserfly

ACARS DATA

DATE IAS GS ALTITUDE FUEL CONSUMED OAT FLIGHT STATUS
2026-08-30 19:53:31 11 0 781 0 27 BOARDING
2026-08-30 19:54:01 14 0 781 0 27 BOARDING
2026-08-30 19:54:31 14 0 781 0 27 BOARDING
2026-08-30 19:55:01 14 0 781 0 27 BOARDING
2026-08-30 19:55:31 12 0 781 0 27 BOARDING
2026-08-30 19:56:01 11 0 781 1 27 BOARDING
2026-08-30 19:56:31 11 0 781 2 27 BOARDING
2026-08-30 19:57:01 15 0 781 2 27 BOARDING
2026-08-30 19:57:31 11 0 781 3 27 BOARDING
2026-08-30 19:58:01 15 0 781 4 27 BOARDING
2026-08-30 19:58:31 11 0 781 4 27 BOARDING
2026-08-30 19:59:01 11 0 781 5 27 BOARDING
2026-08-30 19:59:31 12 0 781 6 27 BOARDING
2026-08-30 20:00:01 14 0 781 6 27 BOARDING
2026-08-30 20:00:31 14 0 781 7 27 BOARDING
2026-08-30 20:01:01 14 0 781 8 27 BOARDING
2026-08-30 20:01:31 10 0 781 8 27 BOARDING
2026-08-30 20:02:01 14 0 781 9 27 BOARDING
2026-08-30 20:02:31 11 15 781 10 27 TAXI TO RUNWAY
2026-08-30 20:03:01 16 33 781 11 27 TAXI TO RUNWAY
2026-08-30 20:03:31 15 29 781 11 27 TAXI TO RUNWAY
2026-08-30 20:04:01 6 18 781 12 27 TAXI TO RUNWAY
2026-08-30 20:04:31 4 16 781 13 27 TAXI TO RUNWAY
2026-08-30 20:05:01 9 25 781 13 27 TAXI TO RUNWAY
2026-08-30 20:05:31 0 0 783 14 27 TAXI TO RUNWAY
2026-08-30 20:06:01 4 7 784 15 27 TAXI TO RUNWAY
2026-08-30 20:06:31 58 47 784 16 27 TAXI TO RUNWAY
2026-08-30 20:07:01 123 116 935 18 27 TAKEOFF
2026-08-30 20:07:31 142 126 1695 19 24 TAKEOFF
2026-08-30 20:08:01 139 132 2601 21 21 INITIAL CLIMB
2026-08-30 20:08:31 138 140 3529 23 18 CLIMB
2026-08-30 20:09:01 138 142 4471 24 16 CLIMB
2026-08-30 20:09:31 137 143 5405 26 14 CLIMB
2026-08-30 20:10:01 137 145 6354 28 13 CLIMB
2026-08-30 20:10:31 137 140 7274 29 12 CLIMB
2026-08-30 20:11:01 137 143 8203 31 10 CLIMB
2026-08-30 20:11:31 137 146 9118 33 8 CLIMB
2026-08-30 20:12:01 137 150 9975 34 7 CLIMB
2026-08-30 20:12:31 137 155 10818 36 5 CLIMB
2026-08-30 20:13:01 137 159 11635 38 3 CLIMB
2026-08-30 20:13:31 137 164 12415 39 2 CLIMB
2026-08-30 20:14:01 137 169 13189 41 0 CLIMB
2026-08-30 20:14:31 137 173 13940 43 -1 CLIMB
2026-08-30 20:15:01 137 177 14676 44 -2 CLIMB
2026-08-30 20:15:31 137 181 15396 46 -4 CLIMB
2026-08-30 20:16:01 137 183 16094 47 -5 CLIMB
2026-08-30 20:16:31 137 187 16781 49 -6 CLIMB
2026-08-30 20:17:01 137 191 17450 50 -8 CLIMB
2026-08-30 20:17:31 136 195 18109 52 -9 CLIMB
2026-08-30 20:18:01 137 199 18742 54 -10 CLIMB
2026-08-30 20:18:31 138 203 19369 55 -11 CLIMB
2026-08-30 20:19:01 162 237 19409 57 -11 ENROUTE
2026-08-30 20:19:31 182 263 19407 58 -11 ENROUTE
2026-08-30 20:20:01 192 280 19414 60 -11 ENROUTE
2026-08-30 20:20:31 202 290 19416 61 -11 ENROUTE
2026-08-30 20:21:01 207 297 19416 63 -11 ENROUTE
2026-08-30 20:21:31 208 301 19413 65 -11 ENROUTE
2026-08-30 20:22:01 210 303 19410 66 -11 ENROUTE
2026-08-30 20:22:31 213 305 19413 68 -11 ENROUTE
2026-08-30 20:23:01 213 305 19414 69 -11 ENROUTE
2026-08-30 20:23:31 211 306 19413 71 -11 ENROUTE
2026-08-30 20:24:01 213 306 19414 72 -11 ENROUTE
2026-08-30 20:24:31 214 307 19415 74 -11 ENROUTE
2026-08-30 20:25:01 212 307 19414 76 -11 ENROUTE
2026-08-30 20:25:31 212 307 19415 77 -11 ENROUTE
2026-08-30 20:26:01 213 307 19414 79 -11 ENROUTE
2026-08-30 20:26:31 212 307 19415 80 -11 ENROUTE
2026-08-30 20:27:01 212 307 19415 82 -11 ENROUTE
2026-08-30 20:27:31 212 307 19414 83 -11 ENROUTE
2026-08-30 20:28:01 214 307 19415 85 -11 ENROUTE
2026-08-30 20:28:31 212 308 19414 86 -11 ENROUTE
2026-08-30 20:29:01 213 308 19415 88 -11 ENROUTE
2026-08-30 20:29:31 214 308 19415 90 -11 ENROUTE
2026-08-30 20:30:01 213 308 19414 91 -11 ENROUTE
2026-08-30 20:30:31 213 307 19413 93 -11 ENROUTE
2026-08-30 20:31:01 213 305 19413 94 -11 ENROUTE
2026-08-30 20:31:31 213 305 19414 96 -11 ENROUTE
2026-08-30 20:32:01 213 305 19415 97 -11 ENROUTE
2026-08-30 20:32:31 213 305 19419 99 -11 ENROUTE
2026-08-30 20:33:01 213 305 19420 101 -11 ENROUTE
2026-08-30 20:33:31 213 305 19419 102 -11 ENROUTE
2026-08-30 20:34:01 212 305 19419 104 -11 ENROUTE
2026-08-30 20:34:31 212 305 19420 105 -11 ENROUTE
2026-08-30 20:35:01 212 306 19420 107 -11 ENROUTE
2026-08-30 20:35:31 213 306 19422 108 -11 ENROUTE
2026-08-30 20:36:01 213 307 19421 110 -11 ENROUTE
2026-08-30 20:36:31 213 307 19421 112 -11 ENROUTE
2026-08-30 20:37:01 213 306 19420 113 -11 ENROUTE
2026-08-30 20:37:31 213 306 19416 115 -11 ENROUTE
2026-08-30 20:38:01 212 306 19431 116 -11 ENROUTE
2026-08-30 20:38:31 213 306 19429 118 -11 ENROUTE
2026-08-30 20:39:01 213 306 19431 119 -11 ENROUTE
2026-08-30 20:39:31 213 306 19429 121 -11 ENROUTE
2026-08-30 20:40:01 213 306 19428 122 -11 ENROUTE
2026-08-30 20:40:31 213 306 19429 124 -11 ENROUTE
2026-08-30 20:41:01 213 306 19426 126 -11 ENROUTE
2026-08-30 20:41:31 213 306 19430 127 -11 ENROUTE
2026-08-30 20:42:01 212 307 19429 129 -11 ENROUTE
2026-08-30 20:42:31 213 307 19430 130 -11 ENROUTE
2026-08-30 20:43:01 213 308 19430 132 -11 ENROUTE
2026-08-30 20:43:31 213 308 19429 133 -11 ENROUTE
2026-08-30 20:44:01 213 307 19441 135 -11 ENROUTE
2026-08-30 20:44:31 213 307 19442 137 -11 ENROUTE
2026-08-30 20:45:01 213 307 19443 138 -11 ENROUTE
2026-08-30 20:45:31 213 308 19441 140 -11 ENROUTE
2026-08-30 20:46:01 212 308 19441 141 -11 ENROUTE
2026-08-30 20:46:31 213 309 19439 143 -11 ENROUTE
2026-08-30 20:47:01 213 310 19440 144 -11 ENROUTE
2026-08-30 20:47:31 214 310 19439 146 -11 ENROUTE
2026-08-30 20:48:01 214 310 19440 147 -11 ENROUTE
2026-08-30 20:48:31 214 310 19441 149 -11 ENROUTE
2026-08-30 20:49:01 214 310 19440 151 -11 ENROUTE
2026-08-30 20:49:31 212 310 19447 152 -11 ENROUTE
2026-08-30 20:50:01 213 311 19452 154 -11 ENROUTE
2026-08-30 20:50:31 213 311 19453 155 -11 ENROUTE
2026-08-30 20:51:01 213 311 19454 157 -11 ENROUTE
2026-08-30 20:51:31 214 312 19453 158 -11 ENROUTE
2026-08-30 20:52:01 214 311 19454 160 -11 ENROUTE
2026-08-30 20:52:31 214 311 19449 162 -11 ENROUTE
2026-08-30 20:53:01 214 311 19449 163 -11 ENROUTE
2026-08-30 20:53:31 212 312 19457 165 -11 ENROUTE
2026-08-30 20:54:01 213 313 19455 166 -11 ENROUTE
2026-08-30 20:54:31 213 313 19456 168 -11 ENROUTE
2026-08-30 20:55:01 213 314 19455 169 -11 ENROUTE
2026-08-30 20:55:31 214 314 19460 171 -11 ENROUTE
2026-08-30 20:56:01 214 313 19466 173 -11 ENROUTE
2026-08-30 20:56:31 214 313 19370 174 -10 DESCENT
2026-08-30 20:57:01 226 326 18540 175 -9 DESCENT
2026-08-30 20:57:31 230 327 17853 177 -7 DESCENT
2026-08-30 20:58:01 230 322 17349 178 -6 DESCENT
2026-08-30 20:58:31 228 318 16844 180 -6 DESCENT
2026-08-30 20:59:01 227 314 16338 181 -5 DESCENT
2026-08-30 20:59:31 229 311 15831 182 -4 DESCENT
2026-08-30 21:00:01 229 307 15327 184 -3 DESCENT
2026-08-30 21:00:31 226 304 14822 185 -2 DESCENT
2026-08-30 21:01:01 229 302 14317 187 -1 DESCENT
2026-08-30 21:01:31 227 301 13812 188 0 DESCENT
2026-08-30 21:02:01 229 297 13307 190 0 DESCENT
2026-08-30 21:02:31 228 292 12804 191 1 DESCENT
2026-08-30 21:03:01 229 288 12301 192 2 DESCENT
2026-08-30 21:03:31 229 284 11797 194 3 DESCENT
2026-08-30 21:04:01 229 281 11292 195 4 DESCENT
2026-08-30 21:04:31 230 278 10790 197 5 DESCENT
2026-08-30 21:05:01 228 272 10370 198 6 DESCENT
2026-08-30 21:05:31 222 265 10111 200 6 DESCENT
2026-08-30 21:06:01 220 259 9858 201 7 DESCENT
2026-08-30 21:06:31 218 257 9606 203 7 DESCENT
2026-08-30 21:07:01 219 254 9356 204 7 DESCENT
2026-08-30 21:07:31 217 252 9107 206 8 DESCENT
2026-08-30 21:08:01 219 249 8858 207 8 DESCENT
2026-08-30 21:08:31 220 247 8608 209 8 DESCENT
2026-08-30 21:09:01 220 246 8361 210 8 DESCENT
2026-08-30 21:09:31 219 244 8111 212 9 DESCENT
2026-08-30 21:10:01 216 244 7857 213 9 DESCENT
2026-08-30 21:10:31 221 241 7610 215 10 DESCENT
2026-08-30 21:11:01 216 240 7361 216 10 DESCENT
2026-08-30 21:11:31 220 238 7113 218 11 DESCENT
2026-08-30 21:12:01 219 237 6863 219 11 DESCENT
2026-08-30 21:12:31 220 236 6612 221 11 DESCENT
2026-08-30 21:13:01 217 235 6361 222 12 DESCENT
2026-08-30 21:13:31 218 234 6111 224 12 DESCENT
2026-08-30 21:14:01 213 226 6053 225 12 ENROUTE
2026-08-30 21:14:31 210 223 6050 227 12 ENROUTE
2026-08-30 21:15:01 208 222 6048 228 11 ENROUTE
2026-08-30 21:15:31 207 221 6046 230 11 ENROUTE
2026-08-30 21:16:01 207 222 6046 231 11 ENROUTE
2026-08-30 21:16:31 207 222 6046 233 11 ENROUTE
2026-08-30 21:17:01 208 222 6047 234 11 ENROUTE
2026-08-30 21:17:31 207 221 6045 236 11 ENROUTE
2026-08-30 21:18:01 217 228 5387 237 12 DESCENT
2026-08-30 21:18:31 214 223 4639 238 13 DESCENT
2026-08-30 21:19:01 202 209 3884 240 14 DESCENT
2026-08-30 21:19:31 193 201 3128 241 15 DESCENT
2026-08-30 21:20:01 192 196 2388 242 16 DESCENT
2026-08-30 21:20:31 182 182 2090 243 17 DESCENT
2026-08-30 21:21:01 152 150 1890 244 18 APPROACH
2026-08-30 21:21:31 109 103 1546 245 19 ON FINAL
2026-08-30 21:22:01 97 98 1286 246 19 ON FINAL
2026-08-30 21:22:31 109 103 1000 247 20 ON FINAL
2026-08-30 21:23:01 105 97 733 248 20 ON FINAL
2026-08-30 21:23:31 77 68 645 249 20 ON FINAL
2026-08-30 21:24:01 24 17 648 250 20 TAXI TO APRON
2026-08-30 21:24:31 14 25 648 251 20 TAXI TO APRON
2026-08-30 21:25:01 12 9 646 251 20 TAXI TO APRON
2026-08-30 21:25:31 4 0 646 252 20 TAXI TO APRON
2026-08-30 21:26:01 2 0 646 252 20 TAXI TO APRON
  • Join our VA!

    It has been 11 years of great learning, friendships, and stories.

  • Sign up now!